Time;durP1;ratioP1;P1;durP2;ratioP2;P2;SDS_P1;SDS_P2;PMS_P1;PMS_P2;Temp;Humidity;BMP_temperature;BMP_pressure;BME280_temperature;BME280_humidity;BME280_pressure;Samples;Min_cycle;Max_cycle;Signal;HPM_P1;HPM_P2
2022/01/22 00:00:29;;;;;;;287.48;14.20;;;;;;;-4.73;79.25;96801.19;4963577;28;20099;-61
2022/01/22 00:02:54;;;;;;;261.10;12.10;;;;;;;-4.60;78.71;96800.75;4963236;28;20507;-60
2022/01/22 00:05:20;;;;;;;135.88;8.32;;;;;;;-4.54;78.25;96795.34;4963843;28;20103;-62
2022/01/22 00:07:46;;;;;;;269.15;11.90;;;;;;;-4.64;78.57;96784.44;4959538;28;20574;-61
2022/01/22 00:10:16;;;;;;;100.75;6.75;;;;;;;-4.91;79.97;96801.81;4960720;28;20431;-60
2022/01/22 00:13:07;;;;;;;233.65;11.48;;;;;;;-4.89;79.99;96797.44;4949892;28;20068;-61
2022/01/22 00:15:33;;;;;;;204.25;10.20;;;;;;;-4.69;79.20;96813.19;4962819;28;20075;-60
2022/01/22 00:17:58;;;;;;;172.18;6.55;;;;;;;-4.69;79.21;96802.78;4963347;28;20567;-59
2022/01/22 00:20:26;;;;;;;200.25;9.73;;;;;;;-4.78;79.28;96797.06;4963468;28;20089;-62
2022/01/22 00:22:51;;;;;;;282.63;13.90;;;;;;;-5.07;80.39;96802.34;4963445;28;20110;-60
2022/01/22 00:25:19;;;;;;;120.00;6.68;;;;;;;-5.01;79.90;96799.53;4963055;28;20118;-63
2022/01/22 00:27:45;;;;;;;24.75;2.92;;;;;;;-4.53;78.09;96809.19;4962474;28;20266;-62
2022/01/22 00:30:15;;;;;;;57.00;4.18;;;;;;;-4.37;77.05;96797.34;4966908;28;20130;-60
2022/01/22 00:32:40;;;;;;;16.02;3.08;;;;;;;-4.12;76.21;96796.44;4971919;28;20079;-61
2022/01/22 00:35:06;;;;;;;13.88;2.80;;;;;;;-4.30;76.64;96804.03;4962747;28;20488;-62
2022/01/22 00:37:32;;;;;;;11.82;2.08;;;;;;;-4.12;75.79;96798.19;4963154;28;20411;-61
2022/01/22 00:39:57;;;;;;;6.35;2.50;;;;;;;-3.85;74.38;96806.72;4965020;28;20349;-61
2022/01/22 00:42:24;;;;;;;2.58;1.88;;;;;;;-4.18;75.72;96796.66;4963034;28;20107;-61
2022/01/22 00:44:51;;;;;;;24.05;3.25;;;;;;;-4.29;76.34;96804.84;4964712;28;20091;-62
2022/01/22 00:47:19;;;;;;;6.93;2.10;;;;;;;-4.35;76.58;96802.50;4974517;28;20170;-61
2022/01/22 00:49:45;;;;;;;10.80;2.47;;;;;;;-4.56;77.14;96804.94;4963075;28;20508;-61
2022/01/22 00:52:10;;;;;;;9.73;2.50;;;;;;;-4.67;77.45;96818.31;4961521;28;20142;-60
2022/01/22 00:54:36;;;;;;;6.43;2.65;;;;;;;-4.82;78.78;96811.91;4962953;28;20524;-62
2022/01/22 00:57:01;;;;;;;5.18;1.98;;;;;;;-4.22;76.34;96813.28;4963033;28;20114;-63
2022/01/22 00:59:26;;;;;;;9.80;1.98;;;;;;;-3.98;75.07;96801.13;4962685;28;20112;-62
2022/01/22 01:01:52;;;;;;;5.10;2.03;;;;;;;-4.39;76.67;96804.34;4964546;28;20122;-64
2022/01/22 01:04:17;;;;;;;26.25;2.78;;;;;;;-4.30;76.45;96798.81;4975429;28;20182;-62
2022/01/22 01:06:43;;;;;;;6.00;1.73;;;;;;;-4.34;76.35;96799.00;4955046;28;20111;-63
2022/01/22 01:09:09;;;;;;;11.90;2.15;;;;;;;-4.24;75.90;96802.97;4956402;28;20102;-61
2022/01/22 01:11:39;;;;;;;12.85;2.20;;;;;;;-4.44;76.65;96801.06;4955754;28;20453;-62
2022/01/22 01:14:07;;;;;;;20.08;2.65;;;;;;;-4.62;77.17;96802.56;4956575;28;20111;-61
2022/01/22 01:35:19;;;;;;;259.33;9.40;;;;;;;-4.46;76.82;96808.06;4962914;28;20340;-62
2022/01/22 01:37:44;;;;;;;218.65;9.23;;;;;;;-4.22;75.95;96810.69;4961668;28;20111;-61
2022/01/22 01:40:12;;;;;;;286.10;7.32;;;;;;;-4.11;75.78;96808.53;4966124;28;20551;-62
2022/01/22 01:42:47;;;;;;;183.63;6.25;;;;;;;-4.04;75.37;96803.97;4961598;28;20105;-63
2022/01/22 01:45:12;;;;;;;48.35;3.35;;;;;;;-3.86;74.74;96810.22;4953958;28;20114;-61
2022/01/22 01:47:40;;;;;;;31.30;2.60;;;;;;;-3.46;73.50;96809.59;4965231;28;20086;-63
2022/01/22 01:50:06;;;;;;;133.07;5.68;;;;;;;-3.43;72.67;96810.31;4974721;28;20111;-63
2022/01/22 01:52:43;;;;;;;50.35;2.88;;;;;;;-3.55;73.52;96816.00;4965077;28;20523;-61
2022/01/22 01:55:13;;;;;;;130.85;7.20;;;;;;;-4.28;75.71;96809.16;4965827;28;20103;-61
2022/01/22 01:57:40;;;;;;;92.65;3.88;;;;;;;-4.31;76.10;96806.69;4955559;28;20186;-60
2022/01/22 02:00:10;;;;;;;110.07;6.63;;;;;;;-3.94;74.97;96812.28;4964079;28;20488;-63
2022/01/22 02:02:36;;;;;;;66.35;3.88;;;;;;;-4.06;75.44;96813.56;4965871;28;20130;-61
2022/01/22 02:05:02;;;;;;;78.82;4.35;;;;;;;-3.90;74.77;96821.66;4965375;28;20600;-62
2022/01/22 02:07:27;;;;;;;130.20;5.40;;;;;;;-4.06;75.21;96819.63;4965200;28;20418;-62
2022/01/22 02:09:53;;;;;;;40.25;3.00;;;;;;;-3.66;74.41;96813.81;4959373;28;20103;-63
2022/01/22 02:25:50;;;;;;;307.08;10.50;;;;;;;-4.03;75.11;96790.06;4965342;28;20114;-61
2022/01/22 02:28:16;;;;;;;320.80;12.75;;;;;;;-4.22;75.75;96792.47;4963784;28;20556;-61
2022/01/22 02:30:45;;;;;;;256.10;10.30;;;;;;;-4.57;77.61;96780.72;4964986;28;20170;-61
2022/01/22 02:33:37;;;;;;;;;;;;;;;-4.85;78.36;96794.66;4961056;28;20154;-62
2022/01/22 02:36:17;;;;;;;357.65;15.32;;;;;;;-4.87;78.65;96786.09;4965188;28;19992;-63
2022/01/22 02:39:10;;;;;;;311.85;11.90;;;;;;;-4.61;78.00;96779.13;4967411;28;20190;-61
2022/01/22 02:41:28;;;;;;;279.65;11.55;;;;;;;-4.78;78.60;96789.25;4961241;28;20115;-63
2022/01/22 02:43:54;;;;;;;195.43;8.75;;;;;;;-4.68;78.35;96770.69;4952368;28;20416;-62
2022/01/22 02:46:23;;;;;;;191.13;8.23;;;;;;;-4.48;77.67;96776.91;4964532;28;20206;-63
2022/01/22 02:48:48;;;;;;;393.88;15.95;;;;;;;-4.80;78.59;96784.09;4965022;28;20075;-60
2022/01/22 02:51:14;;;;;;;289.42;10.80;;;;;;;-4.93;79.53;96778.47;4968034;28;20177;-61
2022/01/22 02:53:39;;;;;;;486.52;17.58;;;;;;;-4.91;79.42;96776.69;4968098;28;20667;-61
2022/01/22 02:56:05;;;;;;;411.52;16.25;;;;;;;-5.14;80.72;96780.06;4967916;28;20072;-62
2022/01/22 02:58:30;;;;;;;529.33;16.35;;;;;;;-4.77;79.05;96777.94;4962781;28;20122;-60
2022/01/22 03:00:56;;;;;;;214.00;9.32;;;;;;;-4.59;78.37;96772.13;4963959;28;20103;-62
2022/01/22 03:03:21;;;;;;;266.00;10.70;;;;;;;-4.64;78.09;96783.56;4962740;28;20144;-61
2022/01/22 03:05:46;;;;;;;134.75;6.68;;;;;;;-4.83;78.59;96784.22;4964518;28;20107;-61
2022/01/22 03:08:13;;;;;;;95.50;5.00;;;;;;;-4.66;78.00;96786.22;4959397;28;20087;-63
2022/01/22 03:10:40;;;;;;;88.38;3.88;;;;;;;-4.14;76.29;96785.25;4962794;28;20564;-63
2022/01/22 03:13:59;;;;;;;81.68;4.25;;;;;;;-4.26;76.54;96776.16;4951491;28;20596;-61
2022/01/22 03:16:27;;;;;;;127.97;6.30;;;;;;;-4.66;77.94;96788.81;4964398;28;20174;-61
2022/01/22 03:18:58;;;;;;;84.22;4.45;;;;;;;-4.74;78.11;96793.44;4954439;28;20316;-62
2022/01/22 03:29:32;;;;;;;278.23;11.60;;;;;;;-4.79;78.78;96805.75;4963130;28;20599;-61
2022/01/22 03:31:58;;;;;;;137.25;6.68;;;;;;;-4.72;78.50;96802.88;4970661;28;20083;-61
2022/01/22 03:34:23;;;;;;;30.17;3.45;;;;;;;-4.40;77.61;96796.59;4969694;28;20241;-60
2022/01/22 03:36:49;;;;;;;96.00;5.10;;;;;;;-4.45;77.80;96788.97;4955876;28;20446;-59
2022/01/22 03:39:14;;;;;;;257.45;9.85;;;;;;;-4.36;76.92;96788.63;4960498;28;20134;-61
2022/01/22 03:41:40;;;;;;;215.88;8.85;;;;;;;-4.62;78.45;96790.41;4955652;28;20106;-62
2022/01/22 03:44:06;;;;;;;109.43;5.50;;;;;;;-4.41;77.73;96794.91;4958450;28;20087;-62
2022/01/22 03:46:32;;;;;;;142.63;7.22;;;;;;;-4.69;78.62;96792.38;4958467;28;20258;-63
2022/01/22 03:48:58;;;;;;;308.98;12.38;;;;;;;-4.91;79.42;96802.69;4956451;28;20622;-62
2022/01/22 03:51:23;;;;;;;207.52;9.55;;;;;;;-4.87;79.73;96803.41;4960173;28;20123;-62
2022/01/22 03:53:49;;;;;;;291.52;12.13;;;;;;;-4.89;79.88;96798.25;4954590;28;20117;-61
2022/01/22 03:56:14;;;;;;;254.60;10.40;;;;;;;-4.80;79.60;96811.88;4962938;28;20087;-60
2022/01/22 03:58:42;;;;;;;85.45;4.53;;;;;;;-4.69;79.34;96801.91;4963716;28;20563;-62
2022/01/22 04:03:34;;;;;;;244.65;9.73;;;;;;;-4.50;78.23;96796.94;4967330;28;20157;-62
2022/01/22 04:08:44;;;;;;;265.67;9.02;;;;;;;-4.38;77.96;96790.44;4957799;28;20093;-61
2022/01/22 04:11:14;;;;;;;332.48;10.07;;;;;;;-4.24;77.39;96799.50;4968019;28;20209;-60
2022/01/22 04:13:39;;;;;;;370.23;14.68;;;;;;;-4.69;79.25;96791.53;4959401;28;20173;-61
2022/01/22 04:16:06;;;;;;;179.23;7.18;;;;;;;-4.45;78.13;96788.97;4963641;28;20098;-61
2022/01/22 04:26:54;;;;;;;179.93;7.25;;;;;;;-4.01;76.36;96797.81;4961286;28;20671;-63
2022/01/22 04:29:21;;;;;;;244.80;9.52;;;;;;;-3.87;75.63;96803.31;4963451;28;20409;-63
2022/01/22 04:31:46;;;;;;;291.55;10.80;;;;;;;-3.88;75.71;96790.38;4970541;28;20557;-62
2022/01/22 04:34:11;;;;;;;140.93;5.05;;;;;;;-3.54;74.64;96789.91;4963244;28;20110;-61
2022/01/22 04:36:37;;;;;;;223.40;8.82;;;;;;;-4.21;76.69;96789.00;4962470;28;20087;-61
2022/01/22 04:39:02;;;;;;;69.70;3.63;;;;;;;-3.60;74.71;96787.53;4963273;28;20497;-60
2022/01/22 04:41:28;;;;;;;100.68;4.15;;;;;;;-3.92;75.66;96793.09;4961736;28;20111;-61
2022/01/22 04:43:59;;;;;;;163.52;6.90;;;;;;;-3.90;76.14;96777.44;4963676;28;20079;-62
2022/01/22 04:46:36;;;;;;;229.77;7.65;;;;;;;-3.56;75.03;96788.28;4950637;28;20127;-63
2022/01/22 04:49:12;;;;;;;223.18;8.45;;;;;;;-4.44;77.88;96788.91;4951121;28;20731;-62
2022/01/22 04:57:05;;;;;;;121.47;5.32;;;;;;;-4.00;76.35;96784.75;4952864;28;20138;-61
2022/01/22 04:59:31;;;;;;;229.23;7.70;;;;;;;-3.94;76.11;96784.47;4961628;28;20474;-61
2022/01/22 05:01:56;;;;;;;204.05;9.25;;;;;;;-4.32;77.58;96782.41;4968622;28;20560;-61
2022/01/22 05:04:22;;;;;;;275.33;10.25;;;;;;;-4.38;77.67;96769.63;4965428;28;20086;-62
2022/01/22 05:06:47;;;;;;;304.67;9.70;;;;;;;-4.39;77.86;96777.50;4961053;28;20111;-60
2022/01/22 05:09:13;;;;;;;227.88;10.27;;;;;;;-4.09;76.89;96769.47;4962886;28;20103;-59
2022/01/22 05:11:38;;;;;;;127.47;5.63;;;;;;;-4.08;76.52;96772.00;4958186;28;20328;-58
2022/01/22 05:14:03;;;;;;;134.95;6.95;;;;;;;-4.26;77.66;96767.47;4965262;28;20328;-61
2022/01/22 05:16:29;;;;;;;221.57;8.25;;;;;;;-4.38;78.11;96771.41;4965032;28;20406;-61
2022/01/22 05:19:03;;;;;;;422.50;13.13;;;;;;;-4.08;77.57;96772.00;4966485;28;20527;-59
2022/01/22 05:21:31;;;;;;;220.80;9.63;;;;;;;-4.21;77.81;96771.63;4965351;28;20111;-59
2022/01/22 05:24:00;;;;;;;145.48;7.07;;;;;;;-4.24;77.65;96765.69;4966614;28;20178;-60
2022/01/22 05:26:51;;;;;;;140.65;7.75;;;;;;;-3.98;76.73;96774.28;4966031;28;20418;-60
2022/01/22 05:32:34;;;;;;;131.65;6.00;;;;;;;-3.69;75.39;96777.50;4923633;29;20088;-59
2022/01/22 05:37:44;;;;;;;203.90;8.35;;;;;;;-4.28;77.88;96780.53;4952802;28;20157;-60
2022/01/22 05:40:10;;;;;;;230.60;9.55;;;;;;;-4.04;76.89;96780.56;4965980;28;20079;-59
2022/01/22 05:42:38;;;;;;;281.60;9.55;;;;;;;-4.09;77.53;96782.47;4963381;28;20787;-61
2022/01/22 05:45:04;;;;;;;101.55;5.60;;;;;;;-3.75;76.11;96790.72;4964382;28;20123;-60
2022/01/22 05:47:30;;;;;;;108.30;4.63;;;;;;;-3.72;76.05;96794.09;4953319;28;20083;-61
2022/01/22 05:49:55;;;;;;;198.85;8.55;;;;;;;-3.94;76.66;96794.91;4965058;28;20573;-60
2022/01/22 05:52:31;;;;;;;211.18;9.15;;;;;;;-3.89;76.57;96793.88;4965824;28;20123;-60
2022/01/22 06:00:06;;;;;;;205.60;8.52;;;;;;;-3.65;75.66;96799.91;4964784;28;20149;-61
2022/01/22 06:02:31;;;;;;;235.52;8.25;;;;;;;-3.63;75.82;96799.84;4963858;28;20111;-61
2022/01/22 06:04:57;;;;;;;19.17;2.55;;;;;;;-3.71;76.21;96800.97;4956297;28;20592;-61
2022/01/22 06:07:22;;;;;;;181.18;7.90;;;;;;;-3.58;75.91;96803.09;4962206;28;20771;-60
2022/01/22 06:10:16;;;;;;;125.60;4.85;;;;;;;-4.03;77.37;96797.84;4958172;28;20107;-61
2022/01/22 06:12:58;;;;;;;356.35;12.18;;;;;;;-4.28;78.70;96805.72;4962821;28;20095;-60
2022/01/22 06:15:23;;;;;;;359.45;15.40;;;;;;;-4.51;79.33;96810.00;4968845;28;20326;-60
2022/01/22 06:17:49;;;;;;;156.88;7.25;;;;;;;-4.21;78.63;96815.00;4973212;28;20111;-62
2022/01/22 06:20:15;;;;;;;184.55;7.30;;;;;;;-4.18;78.16;96820.06;4963438;28;20098;-60
2022/01/22 06:22:41;;;;;;;144.55;7.22;;;;;;;-3.95;77.32;96815.75;4964803;28;20458;-60
2022/01/22 06:25:07;;;;;;;274.85;11.40;;;;;;;-4.14;77.98;96821.69;4955055;28;20494;-61
2022/01/22 06:27:32;;;;;;;294.77;12.32;;;;;;;-4.23;78.08;96816.78;4959731;28;20087;-61
2022/01/22 06:29:58;;;;;;;213.23;7.93;;;;;;;-4.34;78.76;96807.66;4956475;28;20106;-61
2022/01/22 06:32:23;;;;;;;266.83;12.02;;;;;;;-4.58;79.97;96809.38;4964256;28;20087;-61
2022/01/22 06:34:49;;;;;;;309.38;12.60;;;;;;;-4.62;80.02;96816.41;4964260;28;20591;-62
2022/01/22 06:37:14;;;;;;;275.02;12.38;;;;;;;-4.52;79.97;96811.72;4965099;28;20095;-60
2022/01/22 06:42:25;;;;;;;247.18;12.07;;;;;;;-4.70;80.48;96821.88;4949670;28;20110;-61
2022/01/22 06:44:51;;;;;;;183.90;7.40;;;;;;;-4.69;81.03;96820.13;4952775;28;20549;-61
2022/01/22 06:47:16;;;;;;;242.68;9.95;;;;;;;-4.79;81.28;96832.56;4966767;28;20087;-60
2022/01/22 06:49:42;;;;;;;395.52;16.73;;;;;;;-4.82;81.54;96838.72;4974978;28;20103;-60
2022/01/22 06:52:07;;;;;;;275.52;12.25;;;;;;;-4.82;81.27;96836.13;4963988;28;20119;-60
2022/01/22 06:54:32;;;;;;;176.10;8.20;;;;;;;-4.51;80.49;96830.78;4964529;28;20528;-61
2022/01/22 06:56:58;;;;;;;188.95;9.50;;;;;;;-4.50;80.09;96837.69;4963468;28;20087;-61
2022/01/22 06:59:23;;;;;;;331.08;13.68;;;;;;;-4.56;80.27;96833.53;4963631;28;20083;-60
2022/01/22 07:01:54;;;;;;;225.95;10.95;;;;;;;-4.54;80.00;96830.88;4958113;28;20564;-61
2022/01/22 07:04:20;;;;;;;204.40;10.02;;;;;;;-4.71;81.46;96830.59;4971685;28;20113;-62
2022/01/22 07:06:45;;;;;;;298.45;13.32;;;;;;;-4.90;82.13;96839.91;4964061;28;20640;-62
2022/01/22 07:09:11;;;;;;;297.98;13.20;;;;;;;-4.92;82.55;96834.75;4964038;28;20173;-61
2022/01/22 07:11:36;;;;;;;292.25;13.30;;;;;;;-4.91;81.73;96840.78;4967677;28;20079;-60
2022/01/22 07:14:03;;;;;;;101.45;5.95;;;;;;;-4.45;80.52;96841.81;4956230;28;20114;-60
2022/01/22 07:16:28;;;;;;;155.25;7.82;;;;;;;-4.24;79.75;96843.72;4953928;28;20460;-60
2022/01/22 07:18:59;;;;;;;195.27;9.70;;;;;;;-4.10;78.96;96836.25;4961730;28;20103;-60
2022/01/22 07:21:24;;;;;;;203.23;10.30;;;;;;;-4.12;79.34;96837.19;4976146;28;20358;-59
2022/01/22 07:26:16;;;;;;;289.08;12.98;;;;;;;-4.66;80.77;96840.81;4964247;28;20111;-60
2022/01/22 07:28:41;;;;;;;357.48;15.45;;;;;;;-4.78;81.58;96838.63;4954225;28;20075;-61
2022/01/22 07:31:07;;;;;;;123.60;6.43;;;;;;;-4.57;81.12;96839.66;4963461;28;20442;-60
2022/01/22 07:33:34;;;;;;;246.43;10.48;;;;;;;-4.41;80.29;96836.50;4957077;28;20162;-58
2022/01/22 07:36:00;;;;;;;241.98;11.05;;;;;;;-4.42;79.93;96833.06;4949365;28;20092;-58
2022/01/22 07:38:25;;;;;;;195.05;7.35;;;;;;;-4.30;79.83;96830.03;4958834;28;20122;-58
2022/01/22 07:40:50;;;;;;;199.32;8.73;;;;;;;-4.39;80.34;96832.94;4959754;28;20090;-58
2022/01/22 07:43:16;;;;;;;237.18;9.65;;;;;;;-4.42;80.25;96840.84;4959187;28;20512;-58
2022/01/22 07:45:42;;;;;;;333.10;13.23;;;;;;;-4.62;80.70;96842.41;4944931;28;20409;-57
2022/01/22 07:48:07;;;;;;;279.63;12.48;;;;;;;-4.58;81.15;96851.78;4959806;28;20083;-59
2022/01/22 07:50:33;;;;;;;254.48;9.80;;;;;;;-4.25;79.73;96844.63;4959377;28;20110;-59
2022/01/22 07:52:58;;;;;;;158.93;7.70;;;;;;;-4.37;80.15;96843.28;4958983;28;20127;-59
2022/01/22 07:55:24;;;;;;;226.57;9.57;;;;;;;-4.35;80.08;96865.75;4959782;28;20236;-59
2022/01/22 07:57:49;;;;;;;215.35;11.23;;;;;;;-4.52;80.98;96868.09;4958970;28;20102;-60
2022/01/22 08:00:16;;;;;;;321.23;15.27;;;;;;;-4.52;80.91;96871.53;4959263;28;20126;-58
2022/01/22 08:02:42;;;;;;;271.70;11.85;;;;;;;-4.69;81.83;96869.50;4959179;28;20115;-58
2022/01/22 08:05:08;;;;;;;349.27;13.85;;;;;;;-4.59;81.49;96860.50;4958362;28;20547;-59
2022/01/22 08:07:33;;;;;;;209.23;10.18;;;;;;;-4.57;81.42;96866.50;4962274;28;20385;-60
2022/01/22 08:09:59;;;;;;;215.80;9.15;;;;;;;-4.50;81.65;96863.69;4954573;28;20285;-60
2022/01/22 08:12:24;;;;;;;202.43;10.02;;;;;;;-4.35;80.90;96868.34;4954825;28;20139;-59
2022/01/22 08:14:50;;;;;;;231.32;9.73;;;;;;;-4.24;79.76;96870.59;4951352;28;20294;-59
2022/01/22 08:17:15;;;;;;;184.77;8.88;;;;;;;-4.20;80.10;96872.16;4956842;28;20489;-59
2022/01/22 08:19:41;;;;;;;150.93;8.18;;;;;;;-4.15;79.85;96882.38;4954694;28;20138;-60
2022/01/22 08:22:06;;;;;;;271.98;11.63;;;;;;;-4.35;80.40;96880.50;4959615;28;20099;-60
2022/01/22 08:24:32;;;;;;;280.35;12.38;;;;;;;-4.18;80.09;96887.69;4963674;28;20539;-60
2022/01/22 08:29:41;;;;;;;279.27;12.18;;;;;;;-4.43;81.15;96894.63;4962964;28;20165;-60
2022/01/22 08:32:23;;;;;;;273.95;11.20;;;;;;;-4.21;80.40;96887.84;4962934;28;20075;-59
2022/01/22 08:37:32;;;;;;;182.45;8.63;;;;;;;-4.11;80.13;96898.75;4973742;28;20887;-60
2022/01/22 08:39:57;;;;;;;371.38;15.60;;;;;;;-4.43;81.12;96904.16;4961388;28;20293;-59
2022/01/22 08:42:24;;;;;;;205.30;9.48;;;;;;;-4.15;80.31;96900.59;4962104;28;20099;-59
2022/01/22 08:44:49;;;;;;;334.05;13.32;;;;;;;-4.28;80.78;96902.78;4951898;28;20200;-59
2022/01/22 08:47:14;;;;;;;208.02;9.07;;;;;;;-4.02;79.90;96894.94;4962527;28;20102;-59
2022/01/22 08:49:40;;;;;;;251.27;11.18;;;;;;;-4.00;80.04;96904.44;4962073;28;20643;-59
2022/01/22 08:52:13;;;;;;;319.73;13.50;;;;;;;-4.30;80.68;96897.66;4963465;28;20135;-59
2022/01/22 08:54:38;;;;;;;335.88;13.30;;;;;;;-4.45;81.68;96900.78;4959148;28;20103;-59
2022/01/22 08:57:04;;;;;;;363.65;14.52;;;;;;;-4.37;81.43;96903.09;4973449;28;20147;-59
2022/01/22 08:59:29;;;;;;;593.55;16.38;;;;;;;-4.22;81.24;96899.13;4950830;28;20076;-60
2022/01/22 09:01:55;;;;;;;235.95;10.00;;;;;;;-3.82;79.14;96904.66;4949492;28;20226;-59
2022/01/22 09:04:20;;;;;;;141.93;7.65;;;;;;;-3.32;77.82;96908.03;4963063;28;20075;-60
2022/01/22 09:06:46;;;;;;;184.05;8.38;;;;;;;-3.53;78.42;96908.78;4958734;28;20108;-60
2022/01/22 09:09:13;;;;;;;204.57;8.48;;;;;;;-3.55;78.20;96910.59;4952334;28;20114;-59
2022/01/22 09:11:40;;;;;;;137.15;6.85;;;;;;;-3.45;77.94;96899.81;4973049;28;20166;-59
2022/01/22 09:14:08;;;;;;;159.07;6.78;;;;;;;-3.69;78.70;96910.25;4959554;28;20480;-57
2022/01/22 09:16:34;;;;;;;260.45;10.43;;;;;;;-3.67;78.83;96906.69;4972787;28;20436;-57
2022/01/22 09:19:06;;;;;;;213.38;9.88;;;;;;;-3.78;79.19;96920.09;4964121;28;20341;-58
2022/01/22 09:21:36;;;;;;;309.17;13.02;;;;;;;-4.15;80.01;96920.59;4965609;28;20148;-58
2022/01/22 09:24:01;;;;;;;164.23;8.93;;;;;;;-4.25;81.27;96918.28;4958447;28;20102;-58
2022/01/22 09:26:28;;;;;;;153.85;8.20;;;;;;;-4.00;80.75;96922.63;4950012;28;20664;-73
2022/01/22 09:28:55;;;;;;;203.70;8.48;;;;;;;-3.64;78.98;96923.94;4951791;28;20091;-72
2022/01/22 09:31:21;;;;;;;272.83;12.18;;;;;;;-4.08;80.29;96927.28;4968287;28;20076;-73
2022/01/22 09:33:46;;;;;;;149.68;8.70;;;;;;;-4.06;80.66;96930.66;4957100;28;20668;-73
2022/01/22 09:36:12;;;;;;;126.57;7.13;;;;;;;-3.55;78.59;96931.44;4953325;28;20396;-72
2022/01/22 09:38:37;;;;;;;160.98;8.65;;;;;;;-3.43;77.90;96924.06;4961035;28;20169;-71
2022/01/22 09:41:03;;;;;;;195.13;9.43;;;;;;;-3.55;78.44;96923.63;4955927;28;20111;-71
2022/01/22 09:43:28;;;;;;;152.27;7.53;;;;;;;-3.21;77.44;96923.22;4958781;28;20082;-72
2022/01/22 09:45:54;;;;;;;96.07;5.53;;;;;;;-3.18;76.81;96929.19;4954917;28;20166;-71
2022/01/22 09:48:19;;;;;;;118.35;5.90;;;;;;;-2.89;76.29;96934.13;4958150;28;20091;-71
2022/01/22 09:50:45;;;;;;;147.82;6.55;;;;;;;-2.89;76.29;96926.31;4961748;28;20099;-72
2022/01/22 09:53:10;;;;;;;124.40;7.93;;;;;;;-2.54;74.24;96942.28;4961103;28;20125;-70
2022/01/22 09:55:35;;;;;;;227.30;9.88;;;;;;;-2.47;73.61;96947.25;4952964;28;20576;-73
2022/01/22 09:58:03;;;;;;;55.72;4.55;;;;;;;-2.51;74.44;96946.56;4960948;28;20111;-72
2022/01/22 10:00:28;;;;;;;166.50;8.10;;;;;;;-2.63;74.71;96945.28;4964539;28;20095;-72
2022/01/22 10:02:55;;;;;;;105.15;6.32;;;;;;;-2.90;74.79;96948.09;4959483;28;20110;-72
2022/01/22 10:05:34;;;;;;;183.55;7.43;;;;;;;-2.92;75.59;96947.31;4964067;28;20119;-73
2022/01/22 10:08:27;;;;;;;216.50;9.68;;;;;;;-3.01;76.00;96954.59;4965204;28;20384;-71
2022/01/22 10:10:53;;;;;;;165.35;8.88;;;;;;;-2.80;74.49;96954.63;4960175;28;20281;-74
2022/01/22 10:13:41;;;;;;;190.75;8.40;;;;;;;-2.97;75.81;96950.09;4963351;28;20268;-73
2022/01/22 10:16:34;;;;;;;149.57;8.38;;;;;;;-2.81;75.72;96944.28;4964573;28;20088;-72
2022/01/22 10:19:25;;;;;;;173.63;6.55;;;;;;;-2.34;73.83;96953.69;4959556;28;20111;-72
2022/01/22 10:21:58;;;;;;;92.85;5.40;;;;;;;-2.09;73.27;96952.63;4960339;28;20099;-72
2022/01/22 10:24:42;;;;;;;23.63;3.92;;;;;;;-2.42;74.68;96953.97;4955586;28;20091;-72
2022/01/22 10:27:10;;;;;;;57.92;5.22;;;;;;;-2.24;73.03;96947.13;4964236;28;20115;-70
2022/01/22 10:29:36;;;;;;;124.80;5.68;;;;;;;-2.57;74.19;96945.03;4962345;28;20111;-70
2022/01/22 10:32:03;;;;;;;213.45;7.57;;;;;;;-2.26;73.71;96948.13;4962367;28;20083;-73
2022/01/22 10:34:31;;;;;;;115.47;6.82;;;;;;;-2.75;75.21;96957.91;4955434;28;20107;-72
2022/01/22 10:36:57;;;;;;;85.28;6.35;;;;;;;-3.10;76.98;96939.28;4961966;28;20084;-72
2022/01/22 10:39:25;;;;;;;22.52;3.58;;;;;;;-2.93;76.03;96946.44;4974578;28;20498;-73
2022/01/22 10:41:51;;;;;;;112.00;5.60;;;;;;;-2.51;75.21;96950.00;4967330;28;20194;-72
2022/01/22 10:44:21;;;;;;;87.55;6.50;;;;;;;-2.96;75.92;96948.34;4962165;28;20452;-71
2022/01/22 10:46:51;;;;;;;93.47;6.25;;;;;;;-2.83;76.24;96946.94;4964713;28;20107;-71
2022/01/22 10:49:24;;;;;;;38.83;4.15;;;;;;;-1.91;73.05;96942.28;4952747;28;20103;-71
2022/01/22 10:51:55;;;;;;;37.55;3.88;;;;;;;-2.06;72.88;96943.81;4964994;28;20209;-72
2022/01/22 10:54:25;;;;;;;28.20;3.97;;;;;;;-2.04;72.63;96942.84;4958435;28;20287;-70
2022/01/22 10:56:51;;;;;;;32.28;4.90;;;;;;;-1.69;71.01;96941.34;4964343;28;20079;-72
2022/01/22 10:59:18;;;;;;;43.15;5.32;;;;;;;-1.48;70.81;96940.41;4958296;28;20102;-71
2022/01/22 11:01:43;;;;;;;44.35;4.65;;;;;;;-1.41;70.31;96940.97;4961029;28;20611;-71
2022/01/22 11:04:11;;;;;;;46.33;5.00;;;;;;;-1.67;70.07;96957.81;4962772;28;20087;-71
2022/01/22 11:06:38;;;;;;;73.47;5.43;;;;;;;-2.07;72.56;96957.78;4979806;28;20366;-71
2022/01/22 11:09:05;;;;;;;99.13;6.40;;;;;;;-2.02;71.66;96956.69;4966315;28;20115;-72
2022/01/22 11:11:35;;;;;;;130.32;7.07;;;;;;;-2.64;74.34;96954.03;4973403;28;20162;-71
2022/01/22 11:14:01;;;;;;;145.82;6.45;;;;;;;-2.56;74.90;96951.94;4963314;28;20110;-73
2022/01/22 11:16:26;;;;;;;60.67;6.07;;;;;;;-2.40;74.67;96946.97;4962660;28;20396;-73
2022/01/22 11:18:52;;;;;;;96.15;7.45;;;;;;;-2.62;74.52;96946.97;4952526;28;20111;-72
2022/01/22 11:21:17;;;;;;;40.50;4.65;;;;;;;-2.50;74.31;96953.47;4961305;28;20107;-73
2022/01/22 11:23:43;;;;;;;31.33;4.65;;;;;;;-2.14;72.93;96950.22;4948281;28;20090;-71
2022/01/22 11:26:09;;;;;;;77.50;6.82;;;;;;;-2.66;74.61;96946.25;4967445;28;20150;-73
2022/01/22 11:28:34;;;;;;;105.70;8.40;;;;;;;-3.16;77.48;96963.00;4959612;28;20080;-72
2022/01/22 11:31:00;;;;;;;68.47;5.50;;;;;;;-2.82;76.14;96956.44;4955400;28;20256;-73
2022/01/22 11:33:25;;;;;;;86.13;7.10;;;;;;;-2.44;74.61;96954.97;4958686;28;20110;-71
2022/01/22 11:36:09;;;;;;;25.80;4.60;;;;;;;-2.31;74.34;96945.69;4957193;28;20072;-71
2022/01/22 11:38:39;;;;;;;7.10;4.85;;;;;;;-1.95;73.02;96941.59;4956485;28;20119;-72
2022/01/22 11:41:13;;;;;;;10.07;5.20;;;;;;;-2.01;72.83;96960.13;4961815;28;20201;-74
2022/01/22 11:46:39;;;;;;;12.13;4.60;;;;;;;-1.91;73.08;96948.38;4963639;28;20177;-72
2022/01/22 11:49:12;;;;;;;9.65;3.40;;;;;;;-1.52;71.45;96938.81;4963714;28;20090;-72
2022/01/22 11:51:38;;;;;;;29.45;5.18;;;;;;;-1.70;71.62;96955.34;4962859;28;20126;-70
2022/01/22 11:54:03;;;;;;;29.98;5.20;;;;;;;-1.01;69.40;96943.50;4969564;28;20307;-73
2022/01/22 11:56:50;;;;;;;57.80;5.50;;;;;;;-1.05;69.18;96936.69;4969807;28;20082;-73
2022/01/22 11:59:23;;;;;;;34.10;5.40;;;;;;;-0.68;67.92;96939.34;4963814;28;20480;-72
2022/01/22 12:01:51;;;;;;;116.05;6.40;;;;;;;-0.98;68.65;96942.50;4963117;28;20193;-71
2022/01/22 12:04:18;;;;;;;239.85;8.40;;;;;;;-1.16;69.59;96944.22;4964134;28;20083;-72
2022/01/22 12:07:01;;;;;;;118.35;8.05;;;;;;;-1.62;70.74;96938.38;4963228;28;20107;-71
2022/01/22 12:09:30;;;;;;;26.73;3.92;;;;;;;-1.65;71.75;96945.53;4963219;28;20107;-72
2022/01/22 12:14:54;;;;;;;70.97;5.00;;;;;;;-1.35;69.78;96945.06;4974483;28;20121;-72
2022/01/22 12:17:40;;;;;;;85.45;5.63;;;;;;;-1.77;71.69;96953.00;4961287;28;20119;-71
2022/01/22 12:20:18;;;;;;;107.80;6.25;;;;;;;-2.14;73.77;96952.00;4963426;28;20490;-70
2022/01/22 12:22:43;;;;;;;61.97;4.77;;;;;;;-2.02;72.96;96951.47;4963992;28;20115;-72
2022/01/22 12:25:12;;;;;;;43.90;5.10;;;;;;;-2.25;73.48;96953.28;4962979;28;20559;-72
2022/01/22 12:27:44;;;;;;;70.35;4.93;;;;;;;-2.15;74.30;96950.28;4972219;28;20388;-73
2022/01/22 12:30:09;;;;;;;89.97;5.50;;;;;;;-2.32;74.10;96954.44;4969159;28;20116;-69
2022/01/22 12:32:44;;;;;;;65.78;5.00;;;;;;;-2.31;75.05;96953.53;4963691;28;20098;-71
2022/01/22 12:35:15;;;;;;;66.63;4.45;;;;;;;-2.20;74.57;96952.25;4962564;28;20815;-71
2022/01/22 12:37:45;;;;;;;11.48;4.13;;;;;;;-2.24;73.78;96944.53;4951322;28;20125;-69
2022/01/22 12:40:11;;;;;;;13.60;4.18;;;;;;;-2.02;73.78;96951.47;4977853;28;20087;-70
2022/01/22 12:42:56;;;;;;;7.75;5.25;;;;;;;-2.36;74.50;96952.88;4962937;28;20114;-69
2022/01/22 12:45:24;;;;;;;5.40;3.67;;;;;;;-2.41;75.24;96950.47;4962468;28;20107;-71
2022/01/22 12:47:50;;;;;;;8.43;4.95;;;;;;;-2.80;76.05;96959.84;4963105;28;20145;-71
2022/01/22 12:50:15;;;;;;;17.70;5.38;;;;;;;-2.64;75.72;96954.03;4961395;28;20523;-70